Time;durP1;ratioP1;P1;durP2;ratioP2;P2;SDS_P1;SDS_P2;PMS_P1;PMS_P2;Temp;Humidity;BMP_temperature;BMP_pressure;BME280_temperature;BME280_humidity;BME280_pressure;Samples;Min_cycle;Max_cycle;Signal;HPM_P1;HPM_P2
2023/07/29 00:01:01;;;;;;;3.57;3.00;;;18.10;99.90;;;18.24;94.21;97525.66;4918965;29;20454;-73
2023/07/29 00:03:29;;;;;;;5.33;3.57;;;18.10;99.90;;;18.33;93.54;97514.97;4934958;29;20464;-75
2023/07/29 00:05:56;;;;;;;3.80;3.50;;;18.20;99.90;;;18.42;93.50;97524.25;4936945;29;21000;-76
2023/07/29 00:08:24;;;;;;;3.17;2.97;;;18.20;99.90;;;18.10;93.76;97482.50;4938664;29;20467;-75
2023/07/29 00:10:51;;;;;;;3.77;3.47;;;18.20;99.90;;;18.25;94.07;97521.81;4946980;29;20868;-77
2023/07/29 00:13:21;;;;;;;3.60;3.30;;;18.10;99.90;;;18.09;94.44;97497.25;4937420;29;20505;-75
2023/07/29 00:15:49;;;;;;;4.10;3.20;;;18.10;99.90;;;18.15;96.51;97510.94;4938198;29;20992;-76
2023/07/29 00:18:16;;;;;;;3.80;3.50;;;18.00;99.90;;;18.11;94.72;97466.94;4928700;29;20514;-78
2023/07/29 00:20:43;;;;;;;3.27;2.97;;;18.20;99.90;;;18.44;94.33;97488.44;4918034;29;20459;-79
2023/07/29 00:23:10;;;;;;;2.90;2.70;;;18.30;99.90;;;18.89;90.98;97483.00;4939873;28;20458;-77
2023/07/29 00:25:38;;;;;;;2.47;2.27;;;18.60;99.90;;;19.18;88.84;97496.78;4939153;28;20461;-78
2023/07/29 00:28:05;;;;;;;2.77;2.57;;;18.90;99.90;;;19.31;87.42;97498.06;4932436;29;20455;-77
2023/07/29 00:30:34;;;;;;;3.73;2.63;;;19.10;98.80;;;19.27;87.22;97485.22;4919519;29;20476;-77
2023/07/29 00:33:02;;;;;;;4.47;3.30;;;19.10;98.20;;;19.22;87.65;97505.25;4934629;29;20502;-76
2023/07/29 00:35:30;;;;;;;2.83;2.63;;;19.10;97.70;;;18.90;87.05;97438.94;4923725;29;21032;-73
2023/07/29 00:37:57;;;;;;;3.10;2.80;;;19.10;97.40;;;19.43;85.85;97496.91;4932088;29;20468;-76
2023/07/29 00:40:24;;;;;;;2.93;2.63;;;19.30;96.90;;;19.61;85.04;97495.34;4919856;29;20569;-75
2023/07/29 00:42:51;;;;;;;2.53;2.33;;;19.30;96.70;;;18.79;86.38;97410.78;4938488;29;21249;-77
2023/07/29 00:45:19;;;;;;;2.83;2.63;;;19.30;97.00;;;19.06;86.65;97483.44;4926531;29;20477;-78
2023/07/29 00:47:49;;;;;;;3.53;2.57;;;19.20;96.50;;;19.33;86.59;97484.91;4928624;29;20468;-77
2023/07/29 00:50:16;;;;;;;6.73;2.53;;;19.20;97.80;;;19.60;85.51;97493.72;4922904;29;20453;-76
2023/07/29 00:52:44;;;;;;;3.23;2.97;;;19.30;97.40;;;19.61;84.17;97473.44;4926973;29;20481;-78
2023/07/29 00:55:11;;;;;;;3.73;2.70;;;19.40;96.10;;;19.53;84.96;97496.78;4934608;29;20456;-78
2023/07/29 00:57:42;;;;;;;2.90;2.70;;;19.30;96.50;;;19.25;86.31;97502.75;4926838;29;20471;-76
2023/07/29 01:00:11;;;;;;;2.90;2.70;;;19.20;96.70;;;18.94;88.88;97504.84;4932725;29;20982;-77
2023/07/29 01:02:38;;;;;;;3.00;2.80;;;18.80;98.50;;;19.40;85.68;97490.06;4905346;29;20939;-74
2023/07/29 01:05:08;;;;;;;2.93;2.73;;;19.00;98.20;;;19.36;85.16;97489.81;4918853;29;20511;-75
2023/07/29 01:07:47;;;;;;;3.77;3.47;;;19.20;96.90;;;19.20;86.02;97475.44;4929534;29;20530;-77
2023/07/29 01:10:31;;;;;;;3.57;3.27;;;19.00;97.60;;;19.39;84.96;97499.38;4926626;29;20471;-75
2023/07/29 01:13:07;;;;;;;4.73;3.57;;;19.20;96.70;;;19.04;85.21;97460.22;4942912;28;20819;-74
2023/07/29 01:15:44;;;;;;;5.20;3.10;;;19.10;96.30;;;18.58;88.46;97464.84;4929461;29;20575;-76
2023/07/29 01:18:20;;;;;;;5.37;4.50;;;18.80;97.90;;;18.45;90.80;97487.31;4912183;29;20455;-78
2023/07/29 01:20:51;;;;;;;4.53;3.87;;;18.40;99.90;;;18.55;89.85;97481.78;4931423;29;20469;-78
2023/07/29 01:23:25;;;;;;;4.63;4.20;;;18.50;99.90;;;18.24;92.26;97495.59;4914189;29;20455;-75
2023/07/29 01:25:52;;;;;;;5.10;4.60;;;18.20;99.90;;;18.20;93.67;97497.25;4916797;29;20530;-76
2023/07/29 01:28:20;;;;;;;4.50;4.10;;;18.10;99.90;;;18.08;94.39;97494.81;4930383;29;20472;-79
2023/07/29 01:30:53;;;;;;;4.40;4.10;;;17.90;99.90;;;18.00;94.32;97493.44;4917452;29;20467;-78
2023/07/29 01:33:27;;;;;;;4.10;3.77;;;17.70;99.90;;;18.01;94.85;97495.09;4933104;29;20472;-76
2023/07/29 01:36:03;;;;;;;3.93;3.63;;;17.70;99.90;;;17.90;95.64;97498.94;4936747;29;20460;-77
2023/07/29 01:38:37;;;;;;;4.20;3.80;;;17.70;99.90;;;18.37;94.31;97489.53;4939145;29;20846;-78
2023/07/29 01:41:07;;;;;;;5.37;4.77;;;17.90;99.90;;;18.36;92.19;97495.28;4931712;29;20465;-79
2023/07/29 01:43:39;;;;;;;3.73;3.43;;;18.00;99.90;;;18.15;94.36;97502.75;4931626;29;20467;-76
2023/07/29 01:46:06;;;;;;;4.93;3.90;;;17.90;99.90;;;18.27;91.74;97468.50;4926984;29;20560;-76
2023/07/29 01:48:34;;;;;;;3.87;3.43;;;18.20;99.90;;;18.31;92.67;97496.13;4939015;29;20454;-76
2023/07/29 01:51:01;;;;;;;3.77;3.47;;;18.10;99.90;;;18.24;93.54;97481.91;4941201;29;20843;-75
2023/07/29 01:53:28;;;;;;;4.10;3.70;;;18.00;99.90;;;18.28;92.67;97496.69;4913661;29;20965;-76
2023/07/29 01:55:57;;;;;;;4.40;4.00;;;18.10;99.90;;;18.51;91.09;97478.81;4935266;29;20451;-75
2023/07/29 01:58:25;;;;;;;3.00;2.70;;;18.20;99.90;;;18.68;90.50;97496.78;4913522;29;20496;-77
2023/07/29 02:00:52;;;;;;;4.20;3.50;;;18.30;99.90;;;18.73;90.10;97479.50;4916525;29;20466;-80
2023/07/29 02:03:19;;;;;;;3.60;3.30;;;18.40;99.90;;;18.96;88.20;97480.78;4924310;29;20464;-77
2023/07/29 02:05:47;;;;;;;3.47;3.17;;;18.60;99.90;;;18.66;89.42;97485.31;4918706;29;20468;-76
2023/07/29 02:08:14;;;;;;;4.60;3.13;;;18.40;99.70;;;18.86;88.62;97476.16;4934738;29;20459;-80
2023/07/29 02:10:44;;;;;;;3.47;3.17;;;18.50;99.90;;;18.12;90.01;97409.25;4928804;29;20862;-77
2023/07/29 02:13:13;;;;;;;5.53;3.77;;;18.30;99.90;;;18.17;89.77;97422.06;4928327;29;20453;-75
2023/07/29 02:15:40;;;;;;;5.80;4.43;;;18.30;99.90;;;18.36;90.42;97478.88;4910575;29;21231;-83
2023/07/29 02:18:08;;;;;;;3.07;2.87;;;18.20;99.90;;;18.30;92.51;97475.34;4912137;29;20481;-75
2023/07/29 02:20:35;;;;;;;6.10;3.90;;;18.10;99.90;;;18.41;91.31;97476.91;4914743;29;20462;-78
2023/07/29 02:23:02;;;;;;;3.03;2.77;;;18.10;99.90;;;18.57;90.78;97468.66;4915608;29;20467;-77
2023/07/29 02:25:29;;;;;;;5.33;4.83;;;18.20;99.90;;;18.53;88.97;97468.41;4937264;29;20503;-76
2023/07/29 02:27:57;;;;;;;4.50;4.10;;;18.30;99.90;;;18.05;91.85;97463.38;4915172;29;20469;-77
2023/07/29 02:30:25;;;;;;;3.90;3.60;;;18.00;99.90;;;17.87;93.89;97466.69;4909526;29;20755;-79
2023/07/29 02:32:52;;;;;;;4.73;4.33;;;17.80;99.90;;;17.74;94.50;97457.13;4913663;29;20455;-77
2023/07/29 02:35:20;;;;;;;5.60;5.10;;;17.70;99.90;;;17.47;94.63;97412.66;4936379;29;20470;-76
2023/07/29 02:37:47;;;;;;;4.93;4.53;;;17.60;99.90;;;17.49;95.10;97440.50;4931986;29;20534;-77
2023/07/29 02:40:14;;;;;;;4.60;4.07;;;17.50;99.90;;;17.26;97.83;97437.28;4934016;29;20457;-76
2023/07/29 02:42:42;;;;;;;4.20;3.90;;;17.30;99.90;;;17.64;97.18;97457.97;4930077;29;20459;-83
2023/07/29 02:45:11;;;;;;;4.30;4.00;;;17.30;99.90;;;17.57;96.42;97458.25;4916850;29;20446;-80
2023/07/29 02:47:40;;;;;;;4.63;4.23;;;17.20;99.90;;;17.57;96.80;97450.06;4932298;29;20542;-76
2023/07/29 02:50:08;;;;;;;4.93;4.53;;;17.20;99.90;;;17.14;98.81;97431.25;4933778;28;20470;-75
2023/07/29 02:52:35;;;;;;;4.40;4.00;;;17.10;99.90;;;17.55;97.86;97433.97;4930638;29;20457;-75
2023/07/29 02:55:03;;;;;;;5.03;4.63;;;17.30;99.90;;;17.42;96.94;97423.59;4938736;29;20456;-74
2023/07/29 02:57:30;;;;;;;4.80;4.30;;;17.20;99.90;;;17.24;98.08;97434.00;4928069;29;20486;-76
2023/07/29 02:59:57;;;;;;;5.30;4.80;;;17.10;99.90;;;16.97;98.31;97412.38;4942459;29;20455;-77
2023/07/29 03:02:24;;;;;;;3.70;3.40;;;17.00;99.90;;;17.12;97.95;97359.75;4920010;29;20469;-75
2023/07/29 03:04:52;;;;;;;4.13;3.70;;;17.10;99.90;;;17.80;96.54;97424.06;4941016;29;20592;-74
2023/07/29 03:07:20;;;;;;;4.27;3.80;;;17.40;99.90;;;17.65;95.51;97424.09;4937249;29;20997;-76
2023/07/29 03:09:47;;;;;;;5.10;4.70;;;17.40;99.90;;;17.46;95.76;97405.56;4926814;29;20455;-75
2023/07/29 03:12:14;;;;;;;3.50;3.07;;;17.40;99.90;;;17.97;95.04;97414.75;4918324;29;20510;-78
2023/07/29 03:14:42;;;;;;;4.63;3.90;;;17.60;99.90;;;17.65;93.63;97404.97;4932002;29;20462;-81
2023/07/29 03:17:09;;;;;;;3.70;3.40;;;17.80;99.90;;;18.19;92.40;97436.28;4934072;29;20586;-74
2023/07/29 03:19:36;;;;;;;3.57;3.27;;;17.80;99.90;;;18.43;91.58;97440.31;4920729;29;20526;-75
2023/07/29 03:22:05;;;;;;;3.60;3.30;;;17.90;99.90;;;18.33;90.30;97446.59;4926356;29;20467;-76
2023/07/29 03:24:32;;;;;;;3.43;3.13;;;18.10;99.90;;;18.52;90.14;97450.38;4943645;29;20458;-76
2023/07/29 03:27:00;;;;;;;3.87;3.57;;;18.10;99.90;;;18.25;89.32;97437.06;4915702;29;20576;-76
2023/07/29 03:29:27;;;;;;;3.93;3.53;;;18.20;99.30;;;18.07;90.47;97453.00;4939067;29;20855;-79
2023/07/29 03:31:54;;;;;;;4.93;4.50;;;18.00;99.90;;;18.11;89.81;97461.47;4932111;29;20448;-77
2023/07/29 03:34:22;;;;;;;3.30;3.00;;;17.90;99.90;;;18.09;91.70;97448.06;4935379;29;20868;-78
2023/07/29 03:36:50;;;;;;;3.53;3.30;;;17.70;99.90;;;18.19;91.46;97449.13;4917258;29;20471;-73
2023/07/29 03:39:19;;;;;;;2.90;2.70;;;17.80;99.90;;;18.30;90.18;97450.75;4945896;29;20456;-76
2023/07/29 03:41:46;;;;;;;6.13;3.57;;;17.90;99.90;;;18.22;91.06;97456.78;4947213;29;20470;-76
2023/07/29 03:44:13;;;;;;;3.80;3.50;;;17.80;99.90;;;18.29;89.88;97440.91;4934187;29;20458;-75
2023/07/29 03:46:40;;;;;;;3.80;3.50;;;17.90;99.90;;;18.52;88.39;97455.00;4934090;29;20510;-78
2023/07/29 03:49:07;;;;;;;3.60;3.30;;;18.20;99.90;;;18.69;87.52;97451.91;4928980;29;20978;-75
2023/07/29 03:51:35;;;;;;;3.30;3.10;;;18.30;99.70;;;18.76;86.63;97448.88;4936360;29;20473;-77
2023/07/29 03:54:02;;;;;;;3.90;3.60;;;18.40;98.10;;;18.84;86.93;97442.78;4951317;29;20456;-79
2023/07/29 03:56:31;;;;;;;3.10;2.90;;;18.40;99.00;;;18.75;87.27;97442.56;4941163;29;20455;-75
2023/07/29 03:59:04;;;;;;;3.60;3.30;;;18.40;98.50;;;18.97;85.66;97439.41;4936657;29;20476;-75
2023/07/29 04:01:31;;;;;;;4.70;3.60;;;18.60;97.40;;;19.14;84.24;97432.75;4923933;29;21034;-77
2023/07/29 04:03:59;;;;;;;4.30;3.30;;;18.80;96.50;;;19.19;84.26;97445.59;4930410;29;20472;-77
2023/07/29 04:06:27;;;;;;;3.60;3.00;;;18.90;95.90;;;19.57;82.37;97429.38;4920920;29;20990;-75
2023/07/29 04:08:54;;;;;;;4.40;4.00;;;19.10;95.20;;;19.64;81.19;97429.84;4931362;29;21018;-75
2023/07/29 04:11:22;;;;;;;3.67;3.37;;;19.30;94.40;;;19.91;79.80;97416.69;4927127;29;20630;-80
2023/07/29 04:13:51;;;;;;;3.60;3.30;;;19.50;93.80;;;19.91;78.68;97401.06;4925727;29;20457;-76
2023/07/29 04:16:18;;;;;;;3.37;3.17;;;19.70;93.00;;;20.15;78.11;97400.25;4934551;29;20453;-79
2023/07/29 04:18:45;;;;;;;3.33;3.03;;;19.80;92.90;;;20.13;78.32;97407.97;4926015;29;20488;-80
2023/07/29 04:21:12;;;;;;;3.80;3.10;;;19.80;92.80;;;20.12;78.08;97400.03;4921907;29;20461;-76
2023/07/29 04:23:40;;;;;;;3.80;3.40;;;19.80;92.60;;;19.95;78.92;97413.09;4937893;29;20537;-81
2023/07/29 04:26:07;;;;;;;3.53;2.73;;;19.80;92.80;;;20.08;78.44;97403.34;4932709;29;20961;-77
2023/07/29 04:28:34;;;;;;;3.30;3.00;;;19.80;92.60;;;20.18;77.51;97402.44;4935238;29;20518;-78
2023/07/29 04:31:05;;;;;;;2.67;2.50;;;20.00;92.30;;;21.21;73.41;97408.38;4917489;29;20473;-78
2023/07/29 04:33:32;;;;;;;2.93;2.73;;;20.60;91.50;;;21.67;70.93;97403.22;4918618;29;20515;-78
2023/07/29 04:36:00;;;;;;;3.70;2.87;;;21.40;90.30;;;22.27;68.43;97408.91;4918071;29;20468;-77
2023/07/29 04:38:33;;;;;;;3.10;2.80;;;22.10;89.10;;;22.12;66.76;97355.84;4929685;29;20984;-76
2023/07/29 04:41:01;;;;;;;3.27;2.23;;;22.50;87.60;;;22.98;65.56;97413.97;4940579;29;20820;-75
2023/07/29 04:43:28;;;;;;;3.50;2.73;;;22.70;87.20;;;23.57;62.85;97412.28;4929298;29;20468;-76
2023/07/29 04:45:55;;;;;;;3.70;3.07;;;23.20;86.00;;;23.13;64.31;97412.00;4923680;29;21055;-75
2023/07/29 04:48:24;;;;;;;2.80;2.60;;;23.00;85.80;;;23.05;64.30;97399.78;4924119;29;20506;-75
2023/07/29 04:50:51;;;;;;;7.00;2.57;;;23.20;85.40;;;22.69;64.60;97351.09;4925243;29;21096;-77
2023/07/29 04:53:18;;;;;;;2.80;2.57;;;22.80;85.90;;;23.23;63.74;97392.47;4913299;29;20452;-77
2023/07/29 04:55:46;;;;;;;2.60;2.40;;;22.90;85.60;;;24.58;59.22;97392.38;4933334;29;20953;-76
2023/07/29 04:58:13;;;;;;;2.63;2.43;;;24.20;83.80;;;24.78;58.14;97392.88;4925151;29;20470;-77
2023/07/29 05:00:40;;;;;;;2.27;2.10;;;24.80;82.30;;;25.18;56.44;97386.41;4938031;29;20453;-78
2023/07/29 05:03:07;;;;;;;2.37;2.17;;;25.10;81.00;;;24.65;58.35;97385.56;4935228;29;21306;-81
2023/07/29 05:05:36;;;;;;;2.07;1.97;;;24.70;81.20;;;24.04;59.96;97393.41;4920823;29;21015;-77
2023/07/29 05:08:03;;;;;;;2.60;2.27;;;24.40;81.10;;;22.69;64.15;97384.13;4941740;29;21182;-75
2023/07/29 05:10:30;;;;;;;3.20;2.40;;;23.40;82.50;;;22.18;66.66;97373.06;4923089;29;20461;-76
2023/07/29 05:12:57;;;;;;;3.30;2.57;;;22.60;84.20;;;21.81;68.17;97383.19;4945151;28;21172;-75
2023/07/29 05:15:25;;;;;;;2.70;2.33;;;22.00;85.40;;;21.25;70.93;97369.31;4932453;29;20951;-76
2023/07/29 05:17:52;;;;;;;2.20;2.00;;;21.30;87.50;;;21.46;70.20;97384.34;4920108;29;20710;-77
2023/07/29 05:20:19;;;;;;;4.73;2.20;;;21.30;87.90;;;21.43;70.67;97382.16;4942286;29;20451;-76
2023/07/29 05:22:47;;;;;;;3.50;2.40;;;21.20;88.30;;;21.02;71.94;97374.66;4931182;29;20476;-80
2023/07/29 05:25:15;;;;;;;4.53;2.40;;;21.10;88.40;;;20.87;73.27;97393.00;4915778;29;20747;-77
2023/07/29 05:27:42;;;;;;;2.20;2.00;;;20.80;89.40;;;20.80;72.95;97385.13;4929591;29;20467;-87
2023/07/29 05:30:10;;;;;;;2.47;2.27;;;20.90;89.00;;;20.85;72.66;97369.69;4916773;29;20928;-84
2023/07/29 05:32:37;;;;;;;2.40;2.20;;;20.80;89.60;;;21.39;71.24;97397.63;4931963;29;20455;-75
2023/07/29 05:35:07;;;;;;;1.87;1.77;;;21.00;89.60;;;21.17;71.97;97399.13;4915290;29;20487;-77
2023/07/29 05:37:34;;;;;;;2.10;1.90;;;21.00;89.40;;;21.24;71.97;97406.97;4915890;29;20473;-77
2023/07/29 05:40:03;;;;;;;2.73;2.30;;;21.00;89.40;;;20.78;73.49;97395.56;4930728;29;20965;-79
2023/07/29 05:42:31;;;;;;;2.30;2.10;;;20.80;89.70;;;21.15;72.03;97400.53;4912256;29;20629;-78
2023/07/29 05:44:58;;;;;;;1.90;1.80;;;20.90;89.70;;;21.39;71.12;97392.13;4931811;29;20865;-78
2023/07/29 05:47:25;;;;;;;2.00;1.90;;;21.00;89.60;;;21.73;69.49;97385.50;4932294;29;20481;-79
2023/07/29 05:49:53;;;;;;;2.40;2.10;;;21.20;88.90;;;21.48;69.95;97362.88;4912347;29;20529;-75
2023/07/29 05:52:20;;;;;;;2.03;1.93;;;21.20;88.80;;;21.57;69.27;97368.47;4932505;29;20478;-77
2023/07/29 05:54:47;;;;;;;2.57;2.20;;;21.50;88.90;;;21.68;69.33;97379.28;4927627;29;20459;-77
2023/07/29 05:57:16;;;;;;;2.60;2.40;;;21.50;88.40;;;21.63;69.79;97391.97;4930535;29;20463;-76
2023/07/29 05:59:43;;;;;;;2.53;2.30;;;21.40;88.40;;;21.78;69.35;97387.34;4913190;29;20544;-79
2023/07/29 06:02:11;;;;;;;2.43;2.10;;;21.50;88.20;;;22.06;68.38;97385.44;4926673;29;20448;-78
2023/07/29 06:04:38;;;;;;;2.53;1.90;;;21.60;88.20;;;21.91;68.73;97392.03;4932933;29;20559;-77
2023/07/29 06:07:06;;;;;;;1.87;1.53;;;21.70;88.10;;;22.00;68.18;97383.88;4928575;29;20468;-77
2023/07/29 06:09:33;;;;;;;3.40;2.23;;;21.70;88.00;;;21.26;70.85;97392.91;4930851;29;20458;-78
2023/07/29 06:12:00;;;;;;;1.90;1.70;;;21.40;88.20;;;21.65;69.96;97405.44;4925259;29;20462;-79
2023/07/29 06:14:29;;;;;;;2.97;1.80;;;21.40;88.50;;;21.09;71.39;97394.28;4929255;29;20445;-76
2023/07/29 06:16:56;;;;;;;2.60;1.60;;;21.20;89.00;;;20.91;73.00;97398.69;4927658;29;20468;-77
2023/07/29 06:19:23;;;;;;;2.30;2.10;;;20.80;89.70;;;20.71;74.33;97406.09;4918376;29;20478;-76
2023/07/29 06:21:50;;;;;;;5.03;2.20;;;20.60;90.10;;;20.43;75.73;97416.09;4929088;29;20462;-76
2023/07/29 06:24:18;;;;;;;2.40;2.10;;;20.30;90.50;;;20.35;76.21;97404.66;4931629;29;20475;-76
2023/07/29 06:26:45;;;;;;;3.10;1.83;;;20.20;90.80;;;20.42;76.17;97406.25;4928846;29;20469;-75
2023/07/29 06:29:12;;;;;;;2.20;2.00;;;20.20;91.00;;;20.44;76.28;97409.50;4909651;29;20482;-77
2023/07/29 06:31:40;;;;;;;2.57;2.30;;;20.10;91.10;;;20.01;78.52;97405.63;4920905;29;20458;-79
2023/07/29 06:34:08;;;;;;;2.67;2.47;;;20.10;91.50;;;19.49;80.00;97347.81;4923728;29;20482;-75
2023/07/29 06:36:35;;;;;;;2.57;2.37;;;19.80;92.30;;;20.12;78.97;97402.78;4913244;29;20589;-77
2023/07/29 06:39:02;;;;;;;2.33;2.13;;;19.90;92.40;;;20.48;76.23;97385.84;4926162;29;20484;-76
2023/07/29 06:41:30;;;;;;;3.43;2.73;;;20.10;92.00;;;20.20;78.21;97391.97;4927226;29;20471;-77
2023/07/29 06:43:57;;;;;;;4.13;2.53;;;20.10;92.10;;;19.91;80.41;97417.50;4927941;29;20955;-77
2023/07/29 06:46:25;;;;;;;2.87;2.67;;;19.90;92.60;;;19.47;83.44;97446.72;4925637;29;20464;-78
2023/07/29 06:48:53;;;;;;;4.87;3.53;;;19.70;93.80;;;19.08;87.60;97461.28;4925828;29;20463;-77
2023/07/29 06:51:20;;;;;;;5.53;3.90;;;19.30;96.20;;;19.02;90.39;97440.50;4930024;29;21129;-76
2023/07/29 06:53:47;;;;;;;3.83;3.50;;;19.10;99.30;;;18.74;94.20;97429.19;4924069;29;20468;-77
2023/07/29 06:56:15;;;;;;;3.10;2.70;;;18.80;99.90;;;18.16;97.70;97403.22;4920915;29;20468;-77
2023/07/29 06:58:42;;;;;;;2.50;2.30;;;18.40;99.90;;;18.17;97.37;97415.81;4925257;29;20548;-82
2023/07/29 07:01:11;;;;;;;4.77;3.00;;;18.20;99.90;;;18.22;98.62;97418.50;4914247;29;20518;-77
2023/07/29 07:03:38;;;;;;;2.30;2.10;;;18.10;99.90;;;18.33;96.55;97430.19;4909953;29;20476;-76
2023/07/29 07:06:07;;;;;;;2.90;2.67;;;18.20;99.90;;;18.19;97.66;97413.59;4918529;29;20518;-78
2023/07/29 07:08:34;;;;;;;2.90;2.60;;;18.20;99.90;;;18.18;99.04;97436.56;4923161;29;20464;-77
2023/07/29 07:11:01;;;;;;;2.83;2.00;;;18.10;99.90;;;18.04;98.17;97415.28;4927713;29;20448;-76
2023/07/29 07:13:29;;;;;;;2.60;2.40;;;18.10;99.90;;;18.09;98.53;97431.66;4927383;29;20465;-76
2023/07/29 07:15:57;;;;;;;3.43;2.40;;;18.10;99.90;;;18.11;100.00;97431.41;4922756;29;20470;-76
2023/07/29 07:18:24;;;;;;;4.40;2.70;;;18.00;99.90;;;18.21;100.00;97425.91;4930042;29;20497;-78
2023/07/29 07:20:52;;;;;;;3.00;2.80;;;18.10;99.90;;;18.33;99.96;97420.09;4932573;29;20539;-78
2023/07/29 07:23:21;;;;;;;4.63;3.20;;;18.20;99.90;;;18.55;99.14;97416.16;4927904;29;20507;-77
2023/07/29 07:25:48;;;;;;;4.63;4.23;;;18.40;99.90;;;18.89;97.62;97398.97;4929652;29;20468;-76
2023/07/29 07:28:15;;;;;;;3.57;3.27;;;18.60;99.90;;;18.98;95.79;97402.72;4922927;29;20459;-77
2023/07/29 07:30:42;;;;;;;4.13;3.03;;;18.70;99.90;;;19.12;94.49;97402.09;4903570;29;20548;-77
2023/07/29 07:33:10;;;;;;;4.13;3.50;;;18.90;99.90;;;19.15;95.15;97414.41;4928115;29;20526;-76
2023/07/29 07:35:37;;;;;;;3.70;3.27;;;19.00;99.90;;;19.40;94.10;97410.63;4908902;29;20495;-76
2023/07/29 07:38:07;;;;;;;4.90;2.90;;;19.20;99.90;;;19.61;93.13;97407.69;4921245;29;20455;-76
2023/07/29 07:40:35;;;;;;;4.00;3.20;;;19.40;99.90;;;19.96;90.41;97413.94;4929705;29;20466;-78
2023/07/29 07:43:03;;;;;;;2.67;2.47;;;19.70;99.90;;;20.22;89.01;97411.69;4925410;29;21033;-78
2023/07/29 07:45:30;;;;;;;6.40;4.10;;;19.80;99.90;;;20.38;87.14;97404.06;4930436;29;20470;-77
2023/07/29 07:47:57;;;;;;;3.07;2.77;;;20.10;98.60;;;20.41;86.11;97413.66;4913599;29;20459;-78
2023/07/29 07:50:25;;;;;;;4.07;3.43;;;20.20;96.80;;;20.24;86.79;97397.66;4926263;29;20459;-78
2023/07/29 07:52:52;;;;;;;3.37;3.07;;;20.10;96.90;;;20.54;85.54;97414.84;4943940;29;20507;-77
2023/07/29 07:55:20;;;;;;;2.87;2.67;;;20.30;97.20;;;20.34;87.59;97419.50;4932807;29;20547;-78
2023/07/29 07:57:48;;;;;;;3.77;2.90;;;20.20;97.60;;;20.23;86.90;97416.06;4933200;29;20456;-78
2023/07/29 08:00:17;;;;;;;4.27;3.20;;;20.10;97.10;;;19.99;89.46;97416.09;4930555;29;20490;-77
2023/07/29 08:02:45;;;;;;;3.73;3.43;;;20.00;98.30;;;19.91;89.73;97411.19;4933110;29;20464;-78
2023/07/29 08:05:12;;;;;;;4.93;4.27;;;19.90;98.70;;;19.64;90.40;97377.78;4916592;29;20476;-78
2023/07/29 08:07:40;;;;;;;4.13;3.73;;;19.80;99.60;;;19.56;92.50;97394.03;4923996;29;20552;-78
2023/07/29 08:10:09;;;;;;;5.43;4.93;;;19.60;99.90;;;19.13;97.06;97387.31;4928942;29;20477;-77
2023/07/29 08:12:36;;;;;;;4.50;3.90;;;19.30;99.90;;;19.15;97.48;97408.94;4927169;29;20459;-77
2023/07/29 08:15:06;;;;;;;6.23;3.70;;;19.10;99.90;;;19.11;99.15;97416.91;4930101;29;20462;-80
2023/07/29 08:17:33;;;;;;;5.80;5.30;;;19.00;99.90;;;19.00;99.05;97387.97;4934059;29;20458;-80
2023/07/29 08:20:01;;;;;;;5.17;4.67;;;18.90;99.90;;;19.17;99.02;97402.06;4940975;29;20487;-79
2023/07/29 08:22:28;;;;;;;4.53;4.13;;;18.90;99.90;;;19.04;99.73;97389.06;4922393;29;20458;-79
2023/07/29 08:24:55;;;;;;;7.10;5.30;;;18.90;99.90;;;19.20;98.78;97376.84;4928502;29;20522;-79
2023/07/29 08:27:23;;;;;;;6.00;4.60;;;18.90;99.90;;;18.72;97.91;97343.81;4938635;29;20452;-79
2023/07/29 08:29:50;;;;;;;5.67;5.27;;;18.90;99.90;;;19.12;98.73;97415.78;4913190;29;20498;-80
2023/07/29 08:32:21;;;;;;;5.83;5.23;;;18.90;99.90;;;18.82;100.00;97398.47;4939769;29;20485;-82
2023/07/29 08:34:48;;;;;;;5.20;4.77;;;18.80;99.90;;;18.69;100.00;97369.84;4928471;29;20494;-80
2023/07/29 08:37:16;;;;;;;5.80;5.23;;;18.70;99.90;;;18.63;100.00;97369.06;4915884;29;20463;-80
2023/07/29 08:39:43;;;;;;;6.07;5.47;;;18.60;99.90;;;18.36;100.00;97359.38;4918657;29;20478;-80
2023/07/29 08:42:13;;;;;;;8.80;6.13;;;18.60;99.90;;;18.60;100.00;97402.47;4927404;29;20464;-80
2023/07/29 08:44:43;;;;;;;5.80;5.23;;;18.60;99.90;;;18.55;100.00;97375.13;4933156;29;20541;-81
2023/07/29 08:47:11;;;;;;;6.57;5.33;;;18.60;99.90;;;18.67;100.00;97405.69;4935917;28;20543;-82
2023/07/29 08:49:40;;;;;;;6.80;5.00;;;18.60;99.90;;;18.48;100.00;97402.78;4924537;29;20464;-74
2023/07/29 08:52:08;;;;;;;5.27;4.70;;;18.50;99.90;;;18.47;100.00;97392.13;4931978;29;20459;-76
2023/07/29 08:54:36;;;;;;;4.73;4.33;;;18.50;99.90;;;18.57;100.00;97397.53;4917296;29;20470;-74
2023/07/29 08:57:04;;;;;;;3.60;3.30;;;18.50;99.90;;;18.45;100.00;97400.63;4928721;29;20463;-73
2023/07/29 08:59:32;;;;;;;2.87;2.57;;;18.50;99.90;;;18.59;100.00;97403.56;4923889;29;20522;-73
2023/07/29 09:02:01;;;;;;;2.73;2.53;;;18.60;99.90;;;18.59;100.00;97389.88;4920324;29;20463;-78
2023/07/29 09:04:29;;;;;;;2.40;2.20;;;18.60;99.90;;;18.33;97.14;97326.31;4931486;29;20475;-79
2023/07/29 09:06:58;;;;;;;2.23;1.70;;;18.70;99.90;;;18.92;94.45;97403.88;4931621;29;20558;-79
2023/07/29 09:09:27;;;;;;;2.33;2.00;;;18.80;99.90;;;19.00;93.24;97393.44;4925482;29;21129;-78
2023/07/29 09:11:54;;;;;;;1.87;1.77;;;18.90;99.90;;;19.13;94.60;97398.25;4907531;29;21138;-80
2023/07/29 09:14:22;;;;;;;2.80;2.47;;;19.10;99.90;;;19.07;94.41;97374.78;4907858;29;20458;-81
2023/07/29 09:16:50;;;;;;;2.57;2.03;;;19.20;99.90;;;19.45;93.89;97405.09;4914976;29;20460;-75
2023/07/29 09:19:17;;;;;;;4.60;2.60;;;19.30;99.90;;;19.46;95.60;97423.16;4917677;29;20526;-78
2023/07/29 09:21:47;;;;;;;3.60;3.10;;;19.40;99.90;;;19.36;95.97;97418.59;4910149;29;20470;-77
2023/07/29 09:24:18;;;;;;;3.93;3.30;;;19.40;99.90;;;19.37;98.20;97435.88;4892644;29;20464;-77
2023/07/29 09:26:53;;;;;;;3.63;3.33;;;19.30;99.90;;;19.46;95.25;97423.16;4928175;29;20495;-76
2023/07/29 09:29:24;;;;;;;3.83;2.90;;;19.50;99.90;;;19.46;96.04;97461.50;4924303;29;20458;-78
2023/07/29 09:31:51;;;;;;;5.30;3.47;;;19.40;99.90;;;19.48;96.27;97463.97;4928580;29;20514;-78
2023/07/29 09:34:19;;;;;;;3.57;3.27;;;19.40;99.90;;;19.11;99.35;97449.75;4933394;29;20510;-76
2023/07/29 09:36:46;;;;;;;5.53;3.70;;;19.20;99.90;;;19.05;100.00;97448.16;4940842;29;20541;-77
2023/07/29 09:39:17;;;;;;;3.90;3.60;;;19.10;99.90;;;19.43;98.36;97428.41;4933780;29;20475;-78
2023/07/29 09:41:49;;;;;;;6.10;3.40;;;19.30;99.90;;;19.34;97.47;97436.44;4935022;29;20471;-78
2023/07/29 09:44:17;;;;;;;3.57;2.67;;;19.30;99.90;;;19.64;97.11;97445.47;4922037;29;20838;-76
2023/07/29 09:46:47;;;;;;;3.17;2.87;;;19.40;99.90;;;19.57;98.03;97450.47;4928377;29;20506;-76
2023/07/29 09:49:14;;;;;;;3.77;3.40;;;19.40;99.90;;;19.85;96.86;97450.75;4909542;29;20519;-78
2023/07/29 09:51:42;;;;;;;4.90;2.80;;;19.60;99.90;;;20.12;93.85;97419.25;4910827;29;21107;-77
2023/07/29 09:54:10;;;;;;;3.77;3.20;;;19.80;99.90;;;20.32;94.08;97435.44;4925804;29;20450;-78
2023/07/29 09:56:43;;;;;;;4.20;3.40;;;20.10;99.90;;;20.51;92.40;97413.50;4928499;29;20493;-78
2023/07/29 09:59:11;;;;;;;4.67;4.17;;;20.30;99.90;;;21.00;89.06;97418.03;4917578;29;20547;-77
2023/07/29 10:01:38;;;;;;;5.90;4.20;;;20.70;99.90;;;21.43;87.04;97411.59;4934852;29;20464;-78
2023/07/29 10:04:07;;;;;;;4.47;4.07;;;21.00;98.80;;;21.86;84.87;97427.06;4910882;29;21256;-79
2023/07/29 10:06:35;;;;;;;4.53;4.13;;;21.40;97.30;;;22.12;83.06;97412.81;4938456;29;20458;-80
2023/07/29 10:09:03;;;;;;;4.40;4.00;;;21.80;95.80;;;22.53;80.39;97403.72;4922387;29;20458;-78
2023/07/29 10:11:32;;;;;;;4.53;4.13;;;22.20;94.70;;;22.89;78.91;97422.19;4919982;29;21036;-79
2023/07/29 10:14:02;;;;;;;4.23;3.93;;;22.50;94.10;;;22.67;80.30;97433.13;4927969;29;20455;-78
2023/07/29 10:16:30;;;;;;;4.57;4.17;;;22.50;93.90;;;22.52;80.69;97415.88;4930320;29;20507;-78
2023/07/29 10:18:58;;;;;;;4.30;3.93;;;22.50;93.80;;;23.11;77.88;97420.56;4912340;29;20466;-78
2023/07/29 10:21:25;;;;;;;4.67;4.27;;;22.70;93.60;;;22.25;78.74;97285.44;4932283;29;20916;-79